createdAt,value
2022-11-16T00:00:02.769Z,98221.50
2022-11-16T00:02:31.887Z,98215.03
2022-11-16T00:04:58.415Z,98209.63
2022-11-16T00:07:24.858Z,98200.94
2022-11-16T00:09:51.201Z,98200.63
2022-11-16T00:12:17.653Z,98193.78
2022-11-16T00:14:44.225Z,98184.63
2022-11-16T00:17:10.630Z,98184.19
2022-11-16T00:19:37.065Z,98177.13
2022-11-16T00:22:03.436Z,98174.91
2022-11-16T00:24:29.816Z,98182.59
2022-11-16T00:26:56.341Z,98177.34
2022-11-16T00:29:22.733Z,98181.31
2022-11-16T00:31:49.056Z,98167.63
2022-11-16T00:34:15.553Z,98164.97
2022-11-16T00:36:41.918Z,98173.22
2022-11-16T00:39:08.296Z,98170.50
2022-11-16T00:41:34.710Z,98168.81
2022-11-16T00:44:01.048Z,98172.44
2022-11-16T00:46:27.526Z,98176.03
2022-11-16T00:48:53.857Z,98175.50
2022-11-16T00:51:20.202Z,98169.59
2022-11-16T00:53:46.524Z,98171.13
2022-11-16T00:56:12.923Z,98168.22
2022-11-16T00:58:39.274Z,98176.28
2022-11-16T01:01:05.712Z,98172.44
2022-11-16T01:03:32.385Z,98168.13
2022-11-16T01:05:59.176Z,98165.69
2022-11-16T01:08:25.626Z,98162.97
2022-11-16T01:10:52.028Z,98155.38
2022-11-16T01:13:18.463Z,98141.88
2022-11-16T01:15:44.885Z,98148.00
2022-11-16T01:18:11.288Z,98146.00
2022-11-16T01:20:37.641Z,98148.03
2022-11-16T01:23:04.027Z,98149.22
2022-11-16T01:25:30.407Z,98147.22
2022-11-16T01:27:56.743Z,98143.84
2022-11-16T01:30:23.125Z,98154.38
2022-11-16T01:32:49.558Z,98152.47
2022-11-16T01:35:15.915Z,98157.63
2022-11-16T01:37:42.298Z,98143.47
2022-11-16T01:40:08.728Z,98143.00
2022-11-16T01:42:35.134Z,98142.97
2022-11-16T01:45:01.484Z,98131.13
2022-11-16T01:47:27.955Z,98128.28
2022-11-16T01:49:54.309Z,98124.63
2022-11-16T01:52:20.709Z,98120.06
2022-11-16T01:54:47.198Z,98111.31
2022-11-16T01:57:13.554Z,98108.00
2022-11-16T01:59:39.910Z,98110.84
2022-11-16T02:02:06.447Z,98099.28
2022-11-16T02:04:32.797Z,98098.59
2022-11-16T02:06:59.233Z,98100.53
2022-11-16T02:09:25.763Z,98097.66
2022-11-16T02:11:52.206Z,98092.19
2022-11-16T02:14:18.743Z,98088.22
2022-11-16T02:16:45.448Z,98086.50
2022-11-16T02:19:11.820Z,98079.41
2022-11-16T02:21:38.280Z,98081.63
2022-11-16T02:24:04.713Z,98075.38
2022-11-16T02:26:31.301Z,98069.06
2022-11-16T02:28:57.841Z,98055.94
2022-11-16T02:31:24.629Z,98057.97
2022-11-16T02:33:51.069Z,98050.66
2022-11-16T02:36:17.511Z,98048.78
2022-11-16T02:38:43.967Z,98040.84
2022-11-16T02:41:10.900Z,98039.91
2022-11-16T02:43:37.350Z,98030.41
2022-11-16T02:46:03.848Z,98041.34
2022-11-16T02:48:30.651Z,98033.44
2022-11-16T02:50:57.156Z,98033.81
2022-11-16T02:53:23.667Z,98034.28
2022-11-16T02:55:49.984Z,98032.28
2022-11-16T02:58:16.599Z,98027.72
2022-11-16T03:00:42.970Z,98023.16
2022-11-16T03:03:09.433Z,98017.19
2022-11-16T03:05:35.804Z,98015.91
2022-11-16T03:08:02.225Z,98016.75
2022-11-16T03:10:28.588Z,98006.69
2022-11-16T03:12:54.934Z,98011.56
2022-11-16T03:15:21.335Z,98004.22
2022-11-16T03:17:47.701Z,97997.91
2022-11-16T03:20:14.262Z,98003.38
2022-11-16T03:22:40.668Z,98001.06
2022-11-16T03:25:07.027Z,98004.22
2022-11-16T03:27:33.379Z,98010.84
2022-11-16T03:29:59.824Z,98012.75
2022-11-16T03:32:26.248Z,98018.72
2022-11-16T03:34:52.829Z,98014.00
2022-11-16T03:37:19.215Z,98016.63
2022-11-16T03:39:45.594Z,98011.38
2022-11-16T03:42:12.229Z,98014.94
2022-11-16T03:44:38.664Z,98007.81
2022-11-16T03:47:05.121Z,98010.09
2022-11-16T03:49:31.476Z,98000.66
2022-11-16T03:51:57.917Z,97992.13
2022-11-16T03:54:24.353Z,97997.91
2022-11-16T03:56:50.782Z,97987.34
2022-11-16T03:59:17.220Z,97991.84
2022-11-16T04:01:44.993Z,97989.56
2022-11-16T04:04:11.556Z,97989.03
2022-11-16T04:06:37.980Z,97984.94
2022-11-16T04:09:04.657Z,97984.06
2022-11-16T04:11:31.060Z,97975.88
2022-11-16T04:13:57.424Z,97976.72
2022-11-16T04:16:23.810Z,97966.13
2022-11-16T04:18:50.152Z,97972.41
2022-11-16T04:21:16.505Z,97966.66
2022-11-16T04:23:42.911Z,97975.34
2022-11-16T04:26:09.251Z,97966.94
2022-11-16T04:28:36.045Z,97963.91
2022-11-16T04:31:02.654Z,97957.28
2022-11-16T04:33:29.027Z,97947.41
2022-11-16T04:35:55.401Z,97943.31
2022-11-16T04:38:21.766Z,97935.44
2022-11-16T04:40:48.190Z,97931.47
2022-11-16T04:43:14.657Z,97933.88
2022-11-16T04:45:41.514Z,97937.66
2022-11-16T04:48:08.212Z,97939.31
2022-11-16T04:50:34.688Z,97933.13
2022-11-16T04:53:01.054Z,97931.34
2022-11-16T04:55:27.408Z,97930.53
2022-11-16T04:57:53.817Z,97926.94
2022-11-16T05:00:20.167Z,97933.88
2022-11-16T05:02:46.558Z,97938.38
2022-11-16T05:05:13.407Z,97939.13
2022-11-16T05:07:39.881Z,97946.19
2022-11-16T05:10:06.331Z,97949.53
2022-11-16T05:12:32.736Z,97945.44
2022-11-16T05:14:59.146Z,97934.94
2022-11-16T05:17:25.502Z,97923.38
2022-11-16T05:19:52.131Z,97938.59
2022-11-16T05:22:20.859Z,97931.84
2022-11-16T05:24:47.298Z,97935.22
2022-11-16T05:27:13.733Z,97937.22
2022-11-16T05:29:40.212Z,97927.16
2022-11-16T05:32:06.550Z,97925.69
2022-11-16T05:34:32.937Z,97925.69
2022-11-16T05:36:59.310Z,97931.56
2022-11-16T05:39:25.736Z,97933.44
2022-11-16T05:41:52.106Z,97929.63
2022-11-16T05:44:18.633Z,97930.69
2022-11-16T05:46:45.006Z,97928.09
2022-11-16T05:49:11.477Z,97927.88
2022-11-16T05:51:37.900Z,97917.16
2022-11-16T05:54:04.259Z,97912.97
2022-11-16T05:56:30.767Z,97904.44
2022-11-16T05:58:57.200Z,97903.72
2022-11-16T06:01:23.598Z,97900.13
2022-11-16T06:03:50.235Z,97897.34
2022-11-16T06:06:16.590Z,97901.09
2022-11-16T06:08:42.999Z,97905.19
2022-11-16T06:11:09.399Z,97912.53
2022-11-16T06:13:36.967Z,97914.63
2022-11-16T06:16:03.558Z,97909.06
2022-11-16T06:18:30.066Z,97910.34
2022-11-16T06:20:56.586Z,97906.75
2022-11-16T06:23:22.977Z,97915.16
2022-11-16T06:25:49.499Z,97912.88
2022-11-16T06:28:15.868Z,97916.31
2022-11-16T06:30:42.324Z,97915.78
2022-11-16T06:33:08.768Z,97915.69
2022-11-16T06:35:35.434Z,97916.84
2022-11-16T06:38:01.887Z,97912.34
2022-11-16T06:40:28.364Z,97905.28
2022-11-16T06:42:54.751Z,97912.00
2022-11-16T06:45:21.188Z,97903.09
2022-11-16T06:47:47.601Z,97897.00
2022-11-16T06:50:13.959Z,97896.38
2022-11-16T06:52:40.335Z,97894.59
2022-11-16T06:55:06.711Z,97893.66
2022-11-16T06:57:33.275Z,97893.25
2022-11-16T06:59:59.653Z,97886.81
2022-11-16T07:02:26.178Z,97891.56
2022-11-16T07:04:52.808Z,97880.00
2022-11-16T07:07:19.275Z,97882.91
2022-11-16T07:09:45.665Z,97883.25
2022-11-16T07:12:12.045Z,97883.13
2022-11-16T07:14:38.394Z,97879.34
2022-11-16T07:17:09.247Z,97871.97
2022-11-16T07:19:36.486Z,97876.81
2022-11-16T07:22:02.928Z,97878.53
2022-11-16T07:24:29.421Z,97881.44
2022-11-16T07:26:55.897Z,97871.56
2022-11-16T07:29:25.349Z,97867.03
2022-11-16T07:31:51.955Z,97874.72
2022-11-16T07:34:18.373Z,97878.00
2022-11-16T07:36:44.860Z,97878.09
2022-11-16T07:39:11.236Z,97873.91
2022-11-16T07:41:37.672Z,97880.38
2022-11-16T07:44:06.378Z,97879.53
2022-11-16T07:46:49.983Z,97879.34
2022-11-16T07:49:16.381Z,97888.59
2022-11-16T07:51:42.872Z,97884.81
2022-11-16T07:54:09.330Z,97888.94
2022-11-16T07:56:35.878Z,97883.78
2022-11-16T07:59:02.267Z,97886.91
2022-11-16T08:01:28.801Z,97876.41
2022-11-16T08:03:55.196Z,97885.25
2022-11-16T08:06:21.669Z,97883.97
2022-11-16T08:08:48.041Z,97875.25
2022-11-16T08:11:14.611Z,97887.34
2022-11-16T08:13:40.973Z,97877.66
2022-11-16T08:16:07.337Z,97883.34
2022-11-16T08:18:33.936Z,97884.41
2022-11-16T08:21:00.639Z,97882.41
2022-11-16T08:23:27.255Z,97883.34
2022-11-16T08:25:54.060Z,97890.72
2022-11-16T08:28:20.453Z,97893.22
2022-11-16T08:30:52.481Z,97895.53
2022-11-16T08:33:20.110Z,97895.34
2022-11-16T08:35:46.550Z,97894.81
2022-11-16T08:38:12.983Z,97889.66
2022-11-16T08:40:39.836Z,97889.88
2022-11-16T08:43:06.299Z,97895.03
2022-11-16T08:45:32.714Z,97893.34
2022-11-16T08:48:04.017Z,97891.88
2022-11-16T08:50:33.484Z,97896.19
2022-11-16T08:53:06.288Z,97889.47
2022-11-16T08:55:32.695Z,97899.31
2022-11-16T08:57:59.067Z,97895.03
2022-11-16T09:00:26.670Z,97903.53
2022-11-16T09:02:53.133Z,97907.09
2022-11-16T09:05:19.550Z,97901.84
2022-11-16T09:07:46.102Z,97906.25
2022-11-16T09:10:12.484Z,97914.47
2022-11-16T09:12:38.860Z,97916.47
2022-11-16T09:15:05.234Z,97913.41
2022-11-16T09:17:31.794Z,97917.41
2022-11-16T09:19:58.257Z,97917.28
2022-11-16T09:22:24.822Z,97917.94
2022-11-16T09:24:51.243Z,97918.88
2022-11-16T09:27:17.786Z,97910.06
2022-11-16T09:29:44.381Z,97907.94
2022-11-16T09:32:10.817Z,97902.69
2022-11-16T09:34:37.452Z,97903.31
2022-11-16T09:37:03.829Z,97900.69
2022-11-16T09:39:31.648Z,97903.22
2022-11-16T09:41:58.682Z,97905.22
2022-11-16T09:44:25.169Z,97912.34
2022-11-16T09:46:51.598Z,97899.53
2022-11-16T09:49:18.188Z,97901.66
2022-11-16T09:51:45.901Z,97903.09
2022-11-16T09:54:12.740Z,97902.78
2022-11-16T09:56:39.170Z,97902.03
2022-11-16T09:59:05.532Z,97906.06
2022-11-16T10:01:32.218Z,97903.72
2022-11-16T10:03:58.666Z,97908.38
2022-11-16T10:06:25.020Z,97907.84
2022-11-16T10:08:51.479Z,97906.69
2022-11-16T10:11:17.876Z,97902.91
2022-11-16T10:13:52.029Z,97903.53
2022-11-16T10:16:18.407Z,97902.47
2022-11-16T10:18:44.786Z,97899.19
2022-11-16T10:21:11.360Z,97900.88
2022-11-16T10:23:37.797Z,97896.50
2022-11-16T10:26:04.189Z,97886.31
2022-11-16T10:28:30.993Z,97884.28
2022-11-16T10:30:57.374Z,97882.59
2022-11-16T10:33:23.780Z,97877.56
2022-11-16T10:35:50.209Z,97881.44
2022-11-16T10:38:16.635Z,97874.09
2022-11-16T10:40:42.971Z,97878.41
2022-11-16T10:43:09.680Z,97871.38
2022-11-16T10:45:36.019Z,97860.94
2022-11-16T10:48:02.630Z,97861.69
2022-11-16T10:50:29.141Z,97864.63
2022-11-16T10:52:55.940Z,97864.94
2022-11-16T10:55:22.511Z,97860.72
2022-11-16T10:57:48.974Z,97865.22
2022-11-16T11:00:21.037Z,97864.78
2022-11-16T11:02:49.330Z,97869.09
2022-11-16T11:05:15.784Z,97863.31
2022-11-16T11:07:42.178Z,97870.69
2022-11-16T11:10:08.673Z,97858.28
2022-11-16T11:12:35.028Z,97858.69
2022-11-16T11:15:01.442Z,97858.28
2022-11-16T11:17:28.208Z,97861.94
2022-11-16T11:19:54.706Z,97857.63
2022-11-16T11:22:21.077Z,97854.50
2022-11-16T11:24:47.598Z,97858.06
2022-11-16T11:27:14.007Z,97852.81
2022-11-16T11:29:40.515Z,97860.91
2022-11-16T11:32:06.956Z,97851.97
2022-11-16T11:34:35.599Z,97848.63
2022-11-16T11:37:02.011Z,97843.34
2022-11-16T11:39:28.825Z,97856.38
2022-11-16T11:41:55.496Z,97856.25
2022-11-16T11:44:21.916Z,97847.94
2022-11-16T11:47:35.291Z,97843.34
2022-11-16T11:49:34.832Z,97852.06
2022-11-16T11:52:01.213Z,97847.19
2022-11-16T11:54:27.677Z,97842.97
2022-11-16T11:56:54.066Z,97848.28
2022-11-16T11:59:20.782Z,97850.53
2022-11-16T12:01:47.653Z,97844.25
2022-11-16T12:04:13.993Z,97849.53
2022-11-16T12:06:43.944Z,97840.25
2022-11-16T12:09:10.841Z,97837.81
2022-11-16T12:11:37.400Z,97840.84
2022-11-16T12:14:03.904Z,97837.69
2022-11-16T12:16:30.266Z,97835.13
2022-11-16T12:18:56.738Z,97838.41
2022-11-16T12:21:23.116Z,97833.38
2022-11-16T12:23:49.519Z,97829.88
2022-11-16T12:26:15.957Z,97826.06
2022-11-16T12:28:44.921Z,97825.66
2022-11-16T12:31:13.663Z,97829.63
2022-11-16T12:33:40.273Z,97830.97
2022-11-16T12:36:06.941Z,97828.63
2022-11-16T12:38:33.756Z,97827.72
2022-11-16T12:41:00.230Z,97826.66
2022-11-16T12:43:26.609Z,97826.44
2022-11-16T12:45:52.993Z,97821.19
2022-11-16T12:48:19.382Z,97825.91
2022-11-16T12:50:45.820Z,97821.63
2022-11-16T12:53:12.606Z,97815.28
2022-11-16T12:55:38.987Z,97823.25
2022-11-16T12:58:05.377Z,97818.81
2022-11-16T13:00:31.744Z,97831.25
2022-11-16T13:02:58.534Z,97833.72
2022-11-16T13:05:25.940Z,97834.84
2022-11-16T13:07:52.296Z,97826.97
2022-11-16T13:10:18.704Z,97821.47
2022-11-16T13:12:45.312Z,97816.50
2022-11-16T13:15:11.697Z,97827.19
2022-11-16T13:17:38.107Z,97820.28
2022-11-16T13:20:05.553Z,97817.06
2022-11-16T13:22:33.555Z,97826.97
2022-11-16T13:24:59.982Z,97822.13
2022-11-16T13:27:26.676Z,97822.59
2022-11-16T13:29:53.073Z,97812.09
2022-11-16T13:32:19.488Z,97811.47
2022-11-16T13:34:46.339Z,97811.00
2022-11-16T13:37:12.786Z,97802.78
2022-11-16T13:39:39.194Z,97803.69
2022-11-16T13:42:05.836Z,97807.88
2022-11-16T13:44:32.247Z,97796.97
2022-11-16T13:46:58.648Z,97801.59
2022-11-16T13:49:25.115Z,97801.56
2022-11-16T13:51:51.596Z,97808.78
2022-11-16T13:54:44.648Z,97794.56
2022-11-16T13:57:04.438Z,97801.66
2022-11-16T13:59:30.827Z,97788.69
2022-11-16T14:01:57.667Z,97786.22
2022-11-16T14:04:24.156Z,97785.75
2022-11-16T14:06:50.601Z,97784.31
2022-11-16T14:09:16.958Z,97779.22
2022-11-16T14:11:43.333Z,97770.78
2022-11-16T14:14:09.687Z,97773.16
2022-11-16T14:16:36.070Z,97779.56
2022-11-16T14:19:02.511Z,97774.81
2022-11-16T14:21:28.932Z,97769.06
2022-11-16T14:23:55.408Z,97782.16
2022-11-16T14:26:21.912Z,97773.84
2022-11-16T14:28:48.553Z,97776.59
2022-11-16T14:31:14.966Z,97769.09
2022-11-16T14:33:41.524Z,97767.38
2022-11-16T14:36:07.957Z,97769.34
2022-11-16T14:38:37.363Z,97774.16
2022-11-16T14:41:04.055Z,97771.06
2022-11-16T14:43:30.888Z,97769.34
2022-11-16T14:45:57.397Z,97770.75
2022-11-16T14:48:24.019Z,97756.97
2022-11-16T14:50:50.697Z,97760.91
2022-11-16T14:53:17.295Z,97757.19
2022-11-16T14:55:43.723Z,97762.25
2022-11-16T14:58:10.435Z,97757.34
2022-11-16T15:00:36.860Z,97750.56
2022-11-16T15:03:03.294Z,97747.09
2022-11-16T15:05:29.794Z,97747.78
2022-11-16T15:07:56.269Z,97753.06
2022-11-16T15:10:22.660Z,97754.50
2022-11-16T15:12:49.645Z,97747.66
2022-11-16T15:15:16.342Z,97745.31
2022-11-16T15:17:42.763Z,97742.66
2022-11-16T15:20:09.197Z,97743.38
2022-11-16T15:22:35.672Z,97743.72
2022-11-16T15:25:02.260Z,97734.47
2022-11-16T15:27:28.616Z,97742.25
2022-11-16T15:29:55.017Z,97742.16
2022-11-16T15:32:21.585Z,97736.78
2022-11-16T15:34:48.047Z,97730.50
2022-11-16T15:37:14.665Z,97735.53
2022-11-16T15:39:42.090Z,97737.41
2022-11-16T15:42:08.530Z,97734.44
2022-11-16T15:44:35.184Z,97729.19
2022-11-16T15:47:01.758Z,97724.88
2022-11-16T15:49:28.261Z,97725.78
2022-11-16T15:51:54.666Z,97722.03
2022-11-16T15:54:21.393Z,97726.06
2022-11-16T15:56:47.764Z,97727.31
2022-11-16T15:59:14.151Z,97721.84
2022-11-16T16:01:40.951Z,97732.69
2022-11-16T16:04:07.348Z,97729.28
2022-11-16T16:06:33.978Z,97735.16
2022-11-16T16:09:00.560Z,97734.44
2022-11-16T16:11:27.222Z,97730.63
2022-11-16T16:13:56.127Z,97728.91
2022-11-16T16:16:22.581Z,97728.34
2022-11-16T16:18:49.249Z,97732.28
2022-11-16T16:21:15.864Z,97728.47
2022-11-16T16:23:42.293Z,97727.28
2022-11-16T16:26:08.703Z,97732.84
2022-11-16T16:28:35.290Z,97729.09
2022-11-16T16:31:01.713Z,97730.38
2022-11-16T16:33:28.101Z,97729.72
2022-11-16T16:35:54.715Z,97723.22
2022-11-16T16:38:21.280Z,97726.34
2022-11-16T16:40:47.718Z,97721.94
2022-11-16T16:43:14.120Z,97719.88
2022-11-16T16:45:40.780Z,97725.50
2022-11-16T16:48:07.357Z,97726.06
2022-11-16T16:50:33.744Z,97724.56
2022-11-16T16:53:00.472Z,97724.56
2022-11-16T16:55:26.929Z,97727.41
2022-11-16T16:57:53.333Z,97723.44
2022-11-16T17:00:19.832Z,97726.59
2022-11-16T17:02:46.231Z,97730.13
2022-11-16T17:05:15.346Z,97727.63
2022-11-16T17:07:42.398Z,97728.03
2022-11-16T17:10:09.251Z,97716.28
2022-11-16T17:12:35.814Z,97717.13
2022-11-16T17:15:03.319Z,97725.94
2022-11-16T17:17:30.198Z,97725.50
2022-11-16T17:19:57.419Z,97729.59
2022-11-16T17:22:24.152Z,97724.88
2022-11-16T17:24:50.984Z,97729.38
2022-11-16T17:27:17.643Z,97724.78
2022-11-16T17:29:44.753Z,97724.66
2022-11-16T17:32:13.972Z,97731.81
2022-11-16T17:34:40.614Z,97729.50
2022-11-16T17:37:07.118Z,97724.88
2022-11-16T17:39:33.911Z,97728.34
2022-11-16T17:42:00.950Z,97722.06
2022-11-16T17:44:27.816Z,97733.81
2022-11-16T17:46:54.905Z,97721.13
2022-11-16T17:49:21.765Z,97723.84
2022-11-16T17:51:48.777Z,97723.72
2022-11-16T17:54:15.251Z,97730.50
2022-11-16T17:56:41.952Z,97729.09
2022-11-16T17:59:11.084Z,97736.22
2022-11-16T18:01:37.790Z,97721.53
2022-11-16T18:04:04.530Z,97726.34
2022-11-16T18:06:31.444Z,97732.88
2022-11-16T18:08:58.443Z,97727.50
2022-11-16T18:11:26.045Z,97729.06
2022-11-16T18:13:54.089Z,97726.44
2022-11-16T18:16:20.866Z,97719.75
2022-11-16T18:18:48.032Z,97724.47
2022-11-16T18:21:20.365Z,97725.50
2022-11-16T18:23:47.823Z,97713.50
2022-11-16T18:26:16.344Z,97722.72
2022-11-16T18:28:43.760Z,97721.78
2022-11-16T18:31:10.270Z,97725.94
2022-11-16T18:33:37.582Z,97720.59
2022-11-16T18:36:04.779Z,97714.81
2022-11-16T18:38:31.674Z,97723.41
2022-11-16T18:40:58.547Z,97721.91
2022-11-16T18:43:25.519Z,97715.03
2022-11-16T18:45:52.067Z,97712.41
2022-11-16T18:48:19.386Z,97723.53
2022-11-16T18:50:46.367Z,97719.66
2022-11-16T18:53:13.320Z,97718.19
2022-11-16T18:55:40.116Z,97719.94
2022-11-16T18:58:22.783Z,97718.78
2022-11-16T19:00:50.187Z,97723.31
2022-11-16T19:03:17.590Z,97710.69
2022-11-16T19:05:45.721Z,97719.44
2022-11-16T19:08:12.911Z,97719.84
2022-11-16T19:10:39.965Z,97721.13
2022-11-16T19:13:06.698Z,97713.75
2022-11-16T19:15:33.155Z,97716.38
2022-11-16T19:18:20.489Z,97709.53
2022-11-16T19:20:47.061Z,97711.59
2022-11-16T19:23:13.867Z,97707.94
2022-11-16T19:25:40.830Z,97704.88
2022-11-16T19:28:07.754Z,97710.91
2022-11-16T19:30:35.141Z,97712.47
2022-11-16T19:33:05.056Z,97714.78
2022-11-16T19:35:31.785Z,97711.41
2022-11-16T19:37:58.947Z,97708.41
2022-11-16T19:40:26.201Z,97713.03
2022-11-16T19:42:53.423Z,97716.72
2022-11-16T19:45:20.162Z,97711.13
2022-11-16T19:47:47.113Z,97713.25
2022-11-16T19:50:14.240Z,97707.63
2022-11-16T19:52:41.292Z,97707.22
2022-11-16T19:55:09.897Z,97707.66
2022-11-16T19:57:37.252Z,97703.63
2022-11-16T20:00:05.116Z,97695.03
2022-11-16T20:02:32.357Z,97701.47
2022-11-16T20:04:59.670Z,97704.19
2022-11-16T20:07:26.579Z,97698.09
2022-11-16T20:09:53.672Z,97698.72
2022-11-16T20:12:20.665Z,97704.34
2022-11-16T20:14:48.885Z,97704.19
2022-11-16T20:17:15.821Z,97700.63
2022-11-16T20:19:43.145Z,97701.56
2022-11-16T20:22:09.915Z,97706.97
2022-11-16T20:24:36.940Z,97704.75
2022-11-16T20:27:04.401Z,97698.84
2022-11-16T20:29:32.129Z,97703.03
2022-11-16T20:31:58.844Z,97693.97
2022-11-16T20:34:25.251Z,97697.34
2022-11-16T20:36:51.932Z,97687.47
2022-11-16T20:39:18.446Z,97683.91
2022-11-16T20:41:45.323Z,97676.78
2022-11-16T20:44:15.990Z,97675.56
2022-11-16T20:46:42.928Z,97679.97
2022-11-16T20:49:09.384Z,97666.63
2022-11-16T20:51:35.905Z,97670.00
2022-11-16T20:54:02.515Z,97663.50
2022-11-16T20:56:29.174Z,97665.69
2022-11-16T20:58:55.628Z,97660.81
2022-11-16T21:01:22.103Z,97662.81
2022-11-16T21:03:48.925Z,97656.63
2022-11-16T21:06:15.460Z,97664.66
2022-11-16T21:08:42.087Z,97652.84
2022-11-16T21:11:08.625Z,97651.25
2022-11-16T21:13:35.258Z,97656.81
2022-11-16T21:16:01.904Z,97656.56
2022-11-16T21:18:30.839Z,97662.03
2022-11-16T21:20:57.441Z,97664.13
2022-11-16T21:23:23.791Z,97656.47
2022-11-16T21:25:50.568Z,97656.25
2022-11-16T21:28:20.115Z,97647.44
2022-11-16T21:30:49.179Z,97648.38
2022-11-16T21:33:15.600Z,97634.81
2022-11-16T21:35:42.258Z,97635.78
2022-11-16T21:38:09.101Z,97637.22
2022-11-16T21:40:35.481Z,97632.84
2022-11-16T21:43:01.997Z,97635.81
2022-11-16T21:45:28.431Z,97634.00
2022-11-16T21:47:54.812Z,97640.09
2022-11-16T21:50:36.542Z,97638.81
2022-11-16T21:53:02.993Z,97641.44
2022-11-16T21:55:29.450Z,97634.19
2022-11-16T21:57:55.998Z,97630.91
2022-11-16T22:00:22.419Z,97630.13
2022-11-16T22:02:48.896Z,97635.84
2022-11-16T22:05:15.477Z,97635.34
2022-11-16T22:07:41.893Z,97642.88
2022-11-16T22:10:08.453Z,97645.19
2022-11-16T22:12:35.035Z,97636.41
2022-11-16T22:15:01.410Z,97623.78
2022-11-16T22:17:28.914Z,97630.81
2022-11-16T22:19:55.535Z,97632.03
2022-11-16T22:22:21.954Z,97631.00
2022-11-16T22:24:48.744Z,97633.19
2022-11-16T22:27:15.431Z,97637.97
2022-11-16T22:29:41.841Z,97635.22
2022-11-16T22:32:08.295Z,97643.34
2022-11-16T22:34:34.658Z,97650.28
2022-11-16T22:37:01.314Z,97641.88
2022-11-16T22:39:27.751Z,97644.69
2022-11-16T22:41:54.131Z,97640.38
2022-11-16T22:44:20.558Z,97641.28
2022-11-16T22:46:47.013Z,97627.47
2022-11-16T22:49:13.375Z,97623.75
2022-11-16T22:51:41.832Z,97618.75
2022-11-16T22:54:08.285Z,97625.34
2022-11-16T22:56:34.642Z,97626.81
2022-11-16T22:59:01.129Z,97633.50
2022-11-16T23:01:27.502Z,97630.50
2022-11-16T23:03:53.970Z,97637.31
2022-11-16T23:06:20.580Z,97630.31
2022-11-16T23:08:46.939Z,97643.31
2022-11-16T23:11:13.431Z,97642.81
2022-11-16T23:13:39.868Z,97645.22
2022-11-16T23:16:06.235Z,97645.53
2022-11-16T23:18:32.667Z,97645.38
2022-11-16T23:20:59.176Z,97644.56
2022-11-16T23:23:25.643Z,97633.44
2022-11-16T23:25:52.060Z,97641.44
2022-11-16T23:28:18.654Z,97632.09
2022-11-16T23:30:45.046Z,97628.41
2022-11-16T23:33:11.500Z,97643.00
2022-11-16T23:35:37.909Z,97638.91
2022-11-16T23:38:04.378Z,97640.59
2022-11-16T23:40:30.787Z,97649.66
2022-11-16T23:42:59.304Z,97655.31
2022-11-16T23:45:25.891Z,97650.16
2022-11-16T23:47:52.533Z,97645.25
2022-11-16T23:50:19.012Z,97653.00
2022-11-16T23:52:45.397Z,97652.19
2022-11-16T23:55:11.771Z,97655.53
2022-11-16T23:57:38.342Z,97657.22
